Fredericia, Denmark
Current Conditions -  °F | °C
As of 8:20 AM on Wednesday 22 Oct 2014 (Local Time) from EKOD Reporting Station
Clear Clear  
Wind Chill: 40°   Ceiling: Unl
Heat Index: 43°   Visibility: 6mi
Dew Point: 43°   Wind: 5mph
Humidity: 100%   Direction: 320°NW
Pressure: 29.56"   Gusts: NA
Location:  55.57°N, 9.75°E
Report Text: EKOD 220620Z 32004KT CAVOK 06/06 Q1001
Loading
Personal Weather Stations






























Interactive Weather Map
Tropical Storm Tracking
New forecast layout! Learn more

10-Day Weather Forecast

Advertisements
Track Severe Weather on mobile